createdAt,value
2023-01-29T00:00:16.109Z,30.253
2023-01-29T00:05:27.510Z,30.251
2023-01-29T00:10:17.798Z,30.255
2023-01-29T00:15:17.210Z,30.254
2023-01-29T00:20:17.962Z,30.257
2023-01-29T00:25:17.268Z,30.259
2023-01-29T00:30:17.789Z,30.261
2023-01-29T00:35:17.326Z,30.261
2023-01-29T00:40:17.770Z,30.259
2023-01-29T00:45:17.509Z,30.262
2023-01-29T00:50:17.761Z,30.263
2023-01-29T00:55:17.399Z,30.265
2023-01-29T01:00:17.732Z,30.267
2023-01-29T01:05:15.407Z,30.268
2023-01-29T01:10:15.815Z,30.272
2023-01-29T01:15:15.361Z,30.273
2023-01-29T01:20:15.845Z,30.275
2023-01-29T01:25:15.579Z,30.277
2023-01-29T01:30:15.802Z,30.280
2023-01-29T01:35:15.577Z,30.279
2023-01-29T01:40:15.766Z,30.281
2023-01-29T01:45:15.507Z,30.282
2023-01-29T01:50:15.836Z,30.283
2023-01-29T01:55:16.440Z,30.286
2023-01-29T02:00:16.892Z,30.287
2023-01-29T02:05:16.834Z,30.288
2023-01-29T02:10:16.765Z,30.291
2023-01-29T02:15:16.576Z,30.293
2023-01-29T02:20:16.936Z,30.292
2023-01-29T02:25:16.635Z,30.292
2023-01-29T02:30:16.877Z,30.294
2023-01-29T02:35:16.569Z,30.298
2023-01-29T02:40:17.094Z,30.298
2023-01-29T02:45:16.623Z,30.302
2023-01-29T02:50:17.163Z,30.303
2023-01-29T02:55:16.706Z,30.309
2023-01-29T03:00:17.068Z,30.308
2023-01-29T03:05:16.709Z,30.309
2023-01-29T03:10:17.060Z,30.310
2023-01-29T03:15:16.925Z,30.311
2023-01-29T03:20:17.165Z,30.311
2023-01-29T03:25:16.711Z,30.314
2023-01-29T03:30:17.063Z,30.308
2023-01-29T03:35:16.735Z,30.308
2023-01-29T03:40:17.134Z,30.311
2023-01-29T03:45:16.881Z,30.311
2023-01-29T03:50:17.089Z,30.316
2023-01-29T03:55:16.815Z,30.312
2023-01-29T04:00:17.115Z,30.313
2023-01-29T04:05:16.780Z,30.311
2023-01-29T04:10:17.240Z,30.312
2023-01-29T04:15:16.813Z,30.315
2023-01-29T04:20:17.188Z,30.317
2023-01-29T04:25:16.805Z,30.317
2023-01-29T04:30:17.257Z,30.317
2023-01-29T04:35:16.817Z,30.319
2023-01-29T04:40:17.242Z,30.319
2023-01-29T04:45:17.121Z,30.318
2023-01-29T04:50:17.423Z,30.318
2023-01-29T04:55:16.884Z,30.322
2023-01-29T05:00:16.251Z,30.320
2023-01-29T05:05:15.974Z,30.321
2023-01-29T05:10:16.247Z,30.321
2023-01-29T05:15:15.926Z,30.318
2023-01-29T05:20:16.351Z,30.319
2023-01-29T05:25:16.002Z,30.321
2023-01-29T05:30:16.359Z,30.319
2023-01-29T05:35:15.920Z,30.323
2023-01-29T05:40:16.393Z,30.322
2023-01-29T05:45:15.969Z,30.324
2023-01-29T05:50:16.380Z,30.323
2023-01-29T05:55:17.156Z,30.324
2023-01-29T06:00:17.599Z,30.320
2023-01-29T06:05:17.049Z,30.318
2023-01-29T06:10:17.666Z,30.318
2023-01-29T06:15:17.096Z,30.324
2023-01-29T06:20:17.459Z,30.326
2023-01-29T06:25:17.287Z,30.326
2023-01-29T06:30:17.573Z,30.325
2023-01-29T06:35:17.077Z,30.331
2023-01-29T06:40:17.728Z,30.333
2023-01-29T06:45:17.142Z,30.337
2023-01-29T06:50:17.539Z,30.335
2023-01-29T06:55:17.371Z,30.334
2023-01-29T07:00:17.646Z,30.336
2023-01-29T07:05:17.198Z,30.339
2023-01-29T07:10:17.579Z,30.339
2023-01-29T07:15:17.208Z,30.341
2023-01-29T07:20:17.656Z,30.341
2023-01-29T07:25:17.320Z,30.340
2023-01-29T07:30:17.678Z,30.342
2023-01-29T07:35:17.224Z,30.339
2023-01-29T07:40:17.503Z,30.346
2023-01-29T07:45:17.303Z,30.346
2023-01-29T07:50:17.834Z,30.345
2023-01-29T07:55:17.465Z,30.343
2023-01-29T08:00:17.772Z,30.346
2023-01-29T08:05:17.291Z,30.344
2023-01-29T08:10:18.069Z,30.342
2023-01-29T08:15:17.402Z,30.340
2023-01-29T08:20:17.706Z,30.340
2023-01-29T08:25:17.343Z,30.340
2023-01-29T08:30:18.448Z,30.339
2023-01-29T08:35:17.757Z,30.340
2023-01-29T08:40:17.661Z,30.341
2023-01-29T08:45:15.378Z,30.344
2023-01-29T08:50:15.750Z,30.348
2023-01-29T08:55:15.825Z,30.350
2023-01-29T09:00:15.739Z,30.347
2023-01-29T09:05:15.819Z,30.347
2023-01-29T09:10:15.429Z,30.351
2023-01-29T09:15:15.860Z,30.351
2023-01-29T09:20:15.720Z,30.351
2023-01-29T09:25:16.121Z,30.356
2023-01-29T09:30:15.528Z,30.350
2023-01-29T09:35:15.842Z,30.351
2023-01-29T09:40:15.587Z,30.353
2023-01-29T09:45:16.142Z,30.356
2023-01-29T09:50:15.568Z,30.356
2023-01-29T09:55:15.996Z,30.354
2023-01-29T10:00:15.560Z,30.353
2023-01-29T10:05:15.897Z,30.347
2023-01-29T10:10:15.597Z,30.347
2023-01-29T10:15:16.015Z,30.350
2023-01-29T10:20:15.601Z,30.346
2023-01-29T10:25:16.069Z,30.348
2023-01-29T10:30:15.619Z,30.349
2023-01-29T10:35:15.918Z,30.348
2023-01-29T10:40:15.673Z,30.346
2023-01-29T10:45:16.126Z,30.343
2023-01-29T10:50:15.634Z,30.340
2023-01-29T10:55:15.954Z,30.340
2023-01-29T11:00:15.749Z,30.347
2023-01-29T11:05:16.026Z,30.344
2023-01-29T11:10:16.110Z,30.348
2023-01-29T11:15:15.727Z,30.349
2023-01-29T11:20:16.174Z,30.347
2023-01-29T11:25:15.791Z,30.344
2023-01-29T11:30:16.221Z,30.348
2023-01-29T11:35:15.749Z,30.345
2023-01-29T11:40:16.118Z,30.344
2023-01-29T11:45:15.737Z,30.344
2023-01-29T11:50:16.182Z,30.345
2023-01-29T11:55:15.668Z,30.348
2023-01-29T12:00:16.154Z,30.348
2023-01-29T12:05:15.870Z,30.347
2023-01-29T12:10:16.134Z,30.348
2023-01-29T12:15:15.827Z,30.350
2023-01-29T12:20:16.218Z,30.352
2023-01-29T12:25:15.877Z,30.350
2023-01-29T12:30:16.253Z,30.351
2023-01-29T12:35:16.046Z,30.349
2023-01-29T12:40:16.732Z,30.345
2023-01-29T12:45:16.010Z,30.345
2023-01-29T12:50:16.234Z,30.344
2023-01-29T12:55:16.047Z,30.342
2023-01-29T13:00:16.475Z,30.340
2023-01-29T13:05:15.932Z,30.341
2023-01-29T13:10:16.167Z,30.339
2023-01-29T13:15:16.025Z,30.335
2023-01-29T13:20:16.426Z,30.329
2023-01-29T13:25:16.024Z,30.324
2023-01-29T13:30:16.400Z,30.318
2023-01-29T13:35:16.409Z,30.319
2023-01-29T13:40:16.068Z,30.314
2023-01-29T13:45:16.414Z,30.314
2023-01-29T13:50:16.200Z,30.314
2023-01-29T13:55:16.531Z,30.313
2023-01-29T14:00:16.036Z,30.312
2023-01-29T14:05:16.396Z,30.310
2023-01-29T14:10:16.118Z,30.308
2023-01-29T14:15:18.939Z,30.306
2023-01-29T14:20:16.100Z,30.308
2023-01-29T14:25:16.414Z,30.305
2023-01-29T14:30:16.221Z,30.307
2023-01-29T14:35:16.698Z,30.304
2023-01-29T14:40:16.198Z,30.299
2023-01-29T14:45:16.700Z,30.301
2023-01-29T14:50:16.340Z,30.295
2023-01-29T14:55:16.590Z,30.293
2023-01-29T15:00:16.389Z,30.294
2023-01-29T15:05:16.591Z,30.290
2023-01-29T15:10:22.692Z,30.289
2023-01-29T15:15:16.830Z,30.290
2023-01-29T15:20:16.443Z,30.287
2023-01-29T15:25:16.676Z,30.277
2023-01-29T15:30:16.364Z,30.263
2023-01-29T15:35:16.683Z,30.264
2023-01-29T15:40:16.501Z,30.264
2023-01-29T15:45:16.798Z,30.257
2023-01-29T15:50:16.401Z,30.259
2023-01-29T15:55:16.976Z,30.258
2023-01-29T16:00:16.353Z,30.250
2023-01-29T16:05:16.685Z,30.253
2023-01-29T16:10:16.391Z,30.246
2023-01-29T16:15:16.793Z,30.235
2023-01-29T16:20:16.560Z,30.228
2023-01-29T16:25:16.943Z,30.227
2023-01-29T16:30:16.458Z,30.222
2023-01-29T16:35:17.000Z,30.217
2023-01-29T16:40:16.597Z,30.213
2023-01-29T16:45:16.812Z,30.215
2023-01-29T16:50:16.455Z,30.210
2023-01-29T16:55:17.044Z,30.217
2023-01-29T17:00:16.437Z,30.212
2023-01-29T17:05:16.949Z,30.204
2023-01-29T17:10:16.542Z,30.201
2023-01-29T17:15:17.000Z,30.202
2023-01-29T17:20:16.524Z,30.198
2023-01-29T17:25:17.075Z,30.195
2023-01-29T17:30:16.725Z,30.196
2023-01-29T17:35:17.323Z,30.194
2023-01-29T17:40:16.544Z,30.189
2023-01-29T17:45:17.010Z,30.179
2023-01-29T17:50:16.643Z,30.178
2023-01-29T17:55:16.864Z,30.175
2023-01-29T18:00:16.676Z,30.177
2023-01-29T18:05:17.109Z,30.173
2023-01-29T18:10:16.731Z,30.170
2023-01-29T18:15:17.293Z,30.170
2023-01-29T18:20:16.812Z,30.168
2023-01-29T18:25:17.255Z,30.166
2023-01-29T18:30:16.765Z,30.163
2023-01-29T18:35:17.094Z,30.158
2023-01-29T18:40:16.724Z,30.157
2023-01-29T18:45:17.133Z,30.157
2023-01-29T18:50:16.776Z,30.154
2023-01-29T18:55:17.308Z,30.148
2023-01-29T19:00:16.794Z,30.140
2023-01-29T19:05:17.126Z,30.144
2023-01-29T19:10:16.855Z,30.144
2023-01-29T19:15:17.091Z,30.130
2023-01-29T19:20:16.787Z,30.133
2023-01-29T19:25:17.320Z,30.131
2023-01-29T19:30:16.836Z,30.129
2023-01-29T19:35:17.172Z,30.126
2023-01-29T19:40:16.916Z,30.122
2023-01-29T19:45:17.276Z,30.119
2023-01-29T19:50:16.838Z,30.123
2023-01-29T19:55:17.185Z,30.120
2023-01-29T20:00:17.060Z,30.118
2023-01-29T20:05:17.202Z,30.116
2023-01-29T20:10:17.906Z,30.114
2023-01-29T20:15:17.020Z,30.113
2023-01-29T20:20:17.406Z,30.110
2023-01-29T20:25:16.941Z,30.114
2023-01-29T20:30:17.433Z,30.112
2023-01-29T20:35:16.951Z,30.109
2023-01-29T20:40:17.437Z,30.097
2023-01-29T20:45:17.074Z,30.096
2023-01-29T20:50:17.419Z,30.098
2023-01-29T20:55:16.989Z,30.105
2023-01-29T21:00:17.340Z,30.106
2023-01-29T21:05:17.180Z,30.105
2023-01-29T21:10:17.564Z,30.103
2023-01-29T21:15:17.070Z,30.096
2023-01-29T21:20:17.409Z,30.092
2023-01-29T21:25:17.202Z,30.094
2023-01-29T21:30:17.487Z,30.094
2023-01-29T21:35:17.098Z,30.093
2023-01-29T21:40:17.501Z,30.092
2023-01-29T21:45:17.247Z,30.090
2023-01-29T21:50:17.467Z,30.090
2023-01-29T21:55:17.028Z,30.090
2023-01-29T22:00:17.430Z,30.089
2023-01-29T22:05:19.741Z,30.091
2023-01-29T22:10:17.602Z,30.092
2023-01-29T22:15:17.364Z,30.088
2023-01-29T22:20:17.649Z,30.080
2023-01-29T22:25:17.348Z,30.086
2023-01-29T22:30:17.673Z,30.079
2023-01-29T22:35:17.309Z,30.079
2023-01-29T22:40:17.702Z,30.081
2023-01-29T22:45:17.448Z,30.088
2023-01-29T22:50:17.791Z,30.086
2023-01-29T22:55:17.323Z,30.086
2023-01-29T23:00:17.699Z,30.084
2023-01-29T23:05:17.453Z,30.081
2023-01-29T23:10:17.740Z,30.080
2023-01-29T23:15:17.346Z,30.080
2023-01-29T23:20:17.693Z,30.073
2023-01-29T23:25:17.313Z,30.074
2023-01-29T23:30:17.777Z,30.070
2023-01-29T23:35:17.300Z,30.071
2023-01-29T23:40:17.946Z,30.070
2023-01-29T23:45:15.346Z,30.074
2023-01-29T23:50:15.779Z,30.071
2023-01-29T23:55:15.307Z,30.072
